Aniara — SKJC — position and weather

sailwx.info

Track history (hours):
 
Tides and Currents Weather Stations Pressure Air Temp Water Temp Dewpoint Dewpoint Depression Visibility Wind Speed Wind Dir Waves Ship Positions

Aniara

Last reported at 2015-Jun-30 09:31 UTC. Time now 2015-Jun-30 09:57 UTC.
Position N 51°19' E 003°14'.

Length 232 m; draft 9.1 m.

Type: Cargo ship. MMSI: 266282000.

Date/timePositionNaut miles runAvg speedWind from/ knotsBaromVisibWave heightAir tempDewpointWater temp
2015-Jun-30 09:31N 51°19' E 003°14'0 0.0
2015-Jun-30 08:31N 51°19' E 003°14'0 0.0
2015-Jun-30 07:31N 51°19' E 003°14'0 0.0
2015-Jun-30 06:31N 51°19' E 003°14'0 0.0
2015-Jun-30 05:31N 51°19' E 003°14'0 0.0
2015-Jun-30 04:31N 51°19' E 003°14'0 0.0
2015-Jun-30 03:31N 51°19' E 003°14'0 0.0
2015-Jun-30 02:31N 51°19' E 003°14'0 0.0
2015-Jun-30 01:31N 51°19' E 003°14'0 0.0
2015-Jun-30 00:31N 51°19' E 003°14'0 0.0
2015-Jun-29 23:31N 51°19' E 003°14'0 0.0
2015-Jun-29 22:31N 51°19' E 003°14'0 0.0
2015-Jun-29 21:31N 51°19' E 003°14'0 0.0
2015-Jun-29 20:31N 51°19' E 003°14'0 0.0
2015-Jun-29 19:31N 51°19' E 003°14'0 0.0
2015-Jun-29 18:31N 51°19' E 003°14'0 0.0
2015-Jun-29 17:31N 51°19' E 003°14'0 0.0
2015-Jun-29 16:31N 51°19' E 003°14'0 0.0
2015-Jun-29 15:31N 51°19' E 003°14'0 0.0
2015-Jun-29 14:31N 51°19' E 003°14'0 0.0
2015-Jun-29 13:31N 51°19' E 003°14'0 0.0
2015-Jun-29 12:28N 51°19' E 003°14'0 0.0
2015-Jun-29 11:31N 51°19' E 003°14'0 0.0
2015-Jun-29 10:31N 51°19' E 003°14'0 0.0
2015-Jun-29 09:31N 51°19' E 003°14'1 1.3
2015-Jun-29 08:33N 51°20' E 003°13'7 6.6
2015-Jun-29 07:33N 51°24' E 003°05'1313.5
2015-Jun-29 06:34N 51°21' E 002°44'9 8.4
2015-Jun-29 05:31N 51°22' E 002°30'9 9.6
2015-Jun-29 04:34N 51°17' E 002°17'1212.3
2015-Jun-29 03:33N 51°12' E 001°59'2512.3
2015-Jun-29 01:33N 50°56' E 001°29'1212.3
2015-Jun-29 00:33N 50°44' E 001°21'6111.9
2015-Jun-28 19:28N 50°18' W 000°05'1212.4
2015-Jun-28 18:28N 50°15' W 000°24'1212.6
2015-Jun-28 17:32N 50°12' W 000°41'3012.8
2015-Jun-28 15:13N 50°05' W 001°26'1312.9
2015-Jun-28 14:14N 50°02' W 001°45'  
2015-Jun-21 02:32N 38°14' W 073°38'1919.7
2015-Jun-21 01:33N 38°17' W 074°02'1919.0
2015-Jun-21 00:32N 38°21' W 074°26'1918.6
2015-Jun-20 23:30N 38°31' W 074°47'1819.2
2015-Jun-20 22:33N 38°45' W 075°01'1616.0
2015-Jun-20 21:33N 39°00' W 075°09'1918.9
2015-Jun-20 20:33N 39°16' W 075°21'1716.6
2015-Jun-20 19:33N 39°30' W 075°34'1212.4
2015-Jun-20 18:33N 39°42' W 075°31'1110.8
2015-Jun-20 17:33N 39°50' W 075°21'1110.6
2015-Jun-20 16:33N 39°54' W 075°08'1 0.7
2015-Jun-20 15:31N 39°54' W 075°08'0 0.0
2015-Jun-20 14:31N 39°54' W 075°08'0 0.0
2015-Jun-20 13:31N 39°54' W 075°08'0 0.0
2015-Jun-20 12:31N 39°54' W 075°08'0 0.0
2015-Jun-20 11:31N 39°54' W 075°08'0 0.0
2015-Jun-20 10:31N 39°54' W 075°08'0 0.0
2015-Jun-20 09:31N 39°54' W 075°08'  
Track history (hours):
 
Tides and Currents Weather Stations Pressure Air Temp Water Temp Dewpoint Dewpoint Depression Visibility Wind Speed Wind Dir Waves Ship Positions

Aniara

Last reported at 2015-Jun-30 09:31 UTC. Time now 2015-Jun-30 09:57 UTC.
Position N 51°19' E 003°14'.

Length 232 m; draft 9.1 m.

Type: Cargo ship. MMSI: 266282000.

Date/timePositionNaut miles runAvg speedWind from/ knotsBaromVisibWave heightAir tempDewpointWater temp
2015-Jun-30 09:31N 51°19' E 003°14'0 0.0
2015-Jun-30 08:31N 51°19' E 003°14'0 0.0
2015-Jun-30 07:31N 51°19' E 003°14'0 0.0
2015-Jun-30 06:31N 51°19' E 003°14'0 0.0
2015-Jun-30 05:31N 51°19' E 003°14'0 0.0
2015-Jun-30 04:31N 51°19' E 003°14'0 0.0
2015-Jun-30 03:31N 51°19' E 003°14'0 0.0
2015-Jun-30 02:31N 51°19' E 003°14'0 0.0
2015-Jun-30 01:31N 51°19' E 003°14'0 0.0
2015-Jun-30 00:31N 51°19' E 003°14'0 0.0
2015-Jun-29 23:31N 51°19' E 003°14'0 0.0
2015-Jun-29 22:31N 51°19' E 003°14'0 0.0
2015-Jun-29 21:31N 51°19' E 003°14'0 0.0
2015-Jun-29 20:31N 51°19' E 003°14'0 0.0
2015-Jun-29 19:31N 51°19' E 003°14'0 0.0
2015-Jun-29 18:31N 51°19' E 003°14'0 0.0
2015-Jun-29 17:31N 51°19' E 003°14'0 0.0
2015-Jun-29 16:31N 51°19' E 003°14'0 0.0
2015-Jun-29 15:31N 51°19' E 003°14'0 0.0
2015-Jun-29 14:31N 51°19' E 003°14'0 0.0
2015-Jun-29 13:31N 51°19' E 003°14'0 0.0
2015-Jun-29 12:28N 51°19' E 003°14'0 0.0
2015-Jun-29 11:31N 51°19' E 003°14'0 0.0
2015-Jun-29 10:31N 51°19' E 003°14'0 0.0
2015-Jun-29 09:31N 51°19' E 003°14'1 1.3
2015-Jun-29 08:33N 51°20' E 003°13'7 6.6
2015-Jun-29 07:33N 51°24' E 003°05'1313.5
2015-Jun-29 06:34N 51°21' E 002°44'9 8.4
2015-Jun-29 05:31N 51°22' E 002°30'9 9.6
2015-Jun-29 04:34N 51°17' E 002°17'1212.3
2015-Jun-29 03:33N 51°12' E 001°59'2512.3
2015-Jun-29 01:33N 50°56' E 001°29'1212.3
2015-Jun-29 00:33N 50°44' E 001°21'6111.9
2015-Jun-28 19:28N 50°18' W 000°05'1212.4
2015-Jun-28 18:28N 50°15' W 000°24'1212.6
2015-Jun-28 17:32N 50°12' W 000°41'3012.8
2015-Jun-28 15:13N 50°05' W 001°26'1312.9
2015-Jun-28 14:14N 50°02' W 001°45'  
2015-Jun-21 02:32N 38°14' W 073°38'1919.7
2015-Jun-21 01:33N 38°17' W 074°02'1919.0
2015-Jun-21 00:32N 38°21' W 074°26'1918.6
2015-Jun-20 23:30N 38°31' W 074°47'1819.2
2015-Jun-20 22:33N 38°45' W 075°01'1616.0
2015-Jun-20 21:33N 39°00' W 075°09'1918.9
2015-Jun-20 20:33N 39°16' W 075°21'1716.6
2015-Jun-20 19:33N 39°30' W 075°34'1212.4
2015-Jun-20 18:33N 39°42' W 075°31'1110.8
2015-Jun-20 17:33N 39°50' W 075°21'1110.6
2015-Jun-20 16:33N 39°54' W 075°08'1 0.7
2015-Jun-20 15:31N 39°54' W 075°08'0 0.0
2015-Jun-20 14:31N 39°54' W 075°08'0 0.0
2015-Jun-20 13:31N 39°54' W 075°08'0 0.0
2015-Jun-20 12:31N 39°54' W 075°08'0 0.0
2015-Jun-20 11:31N 39°54' W 075°08'0 0.0
2015-Jun-20 10:31N 39°54' W 075°08'0 0.0
2015-Jun-20 09:31N 39°54' W 075°08'  

Dump ship's entire track history